createdAt,value
2022-12-29T00:00:15.164Z,31.30
2022-12-29T00:02:43.038Z,33.03
2022-12-29T00:05:11.303Z,31.80
2022-12-29T00:07:40.401Z,31.10
2022-12-29T00:10:09.137Z,33.07
2022-12-29T00:12:54.675Z,32.40
2022-12-29T00:15:41.021Z,32.60
2022-12-29T00:18:09.549Z,32.10
2022-12-29T00:20:54.540Z,32.20
2022-12-29T00:23:55.624Z,32.40
2022-12-29T00:26:40.474Z,31.47
2022-12-29T00:29:27.489Z,32.00
2022-12-29T00:32:12.686Z,31.40
2022-12-29T00:34:58.063Z,31.33
2022-12-29T00:37:45.956Z,31.80
2022-12-29T00:40:32.325Z,31.17
2022-12-29T00:43:17.781Z,31.83
2022-12-29T00:45:45.723Z,31.27
2022-12-29T00:48:13.348Z,31.67
2022-12-29T00:50:40.848Z,30.70
2022-12-29T00:53:08.411Z,30.87
2022-12-29T00:55:39.776Z,31.60
2022-12-29T00:58:07.410Z,31.80
2022-12-29T01:00:35.083Z,31.13
2022-12-29T01:03:02.797Z,31.17
2022-12-29T01:05:30.447Z,31.70
2022-12-29T01:07:58.122Z,31.53
2022-12-29T01:10:24.709Z,30.80
2022-12-29T01:12:53.643Z,31.30
2022-12-29T01:15:21.465Z,31.73
2022-12-29T01:17:49.329Z,31.17
2022-12-29T01:20:17.098Z,31.90
2022-12-29T01:22:44.824Z,30.80
2022-12-29T01:25:12.464Z,31.00
2022-12-29T01:27:40.051Z,30.40
2022-12-29T01:30:10.490Z,31.30
2022-12-29T01:32:38.157Z,32.00
2022-12-29T01:35:06.603Z,30.93
2022-12-29T01:37:34.197Z,31.50
2022-12-29T01:40:01.783Z,31.63
2022-12-29T01:42:29.353Z,31.67
2022-12-29T01:44:58.601Z,31.47
2022-12-29T01:47:36.130Z,31.50
2022-12-29T01:50:11.168Z,31.67
2022-12-29T01:52:44.049Z,32.30
2022-12-29T01:55:13.189Z,32.00
2022-12-29T01:57:44.594Z,33.17
2022-12-29T02:00:14.554Z,32.80
2022-12-29T02:02:47.168Z,31.60
2022-12-29T02:05:23.368Z,32.90
2022-12-29T02:07:53.209Z,33.03
2022-12-29T02:10:22.642Z,32.60
2022-12-29T02:12:50.321Z,32.90
2022-12-29T02:15:19.321Z,31.53
2022-12-29T02:18:05.572Z,32.10
2022-12-29T02:21:12.374Z,31.97
2022-12-29T02:24:07.805Z,32.40
2022-12-29T02:26:51.691Z,32.77
2022-12-29T02:29:38.509Z,32.23
2022-12-29T02:32:13.631Z,33.80
2022-12-29T02:34:55.263Z,33.40
2022-12-29T02:37:28.480Z,33.80
2022-12-29T02:40:06.294Z,33.00
2022-12-29T02:42:38.743Z,33.30
2022-12-29T02:45:12.523Z,32.97
2022-12-29T02:47:43.855Z,34.10
2022-12-29T02:50:17.373Z,34.13
2022-12-29T02:52:51.728Z,33.40
2022-12-29T02:55:18.544Z,32.77
2022-12-29T02:57:46.242Z,33.03
2022-12-29T03:00:16.934Z,33.60
2022-12-29T03:03:06.680Z,33.40
2022-12-29T03:05:50.818Z,33.90
2022-12-29T03:08:29.724Z,33.60
2022-12-29T03:11:02.793Z,34.03
2022-12-29T03:13:57.047Z,35.57
2022-12-29T03:16:28.022Z,34.70
2022-12-29T03:19:06.978Z,33.53
2022-12-29T03:21:56.672Z,35.00
2022-12-29T03:24:28.646Z,34.90
2022-12-29T03:27:00.289Z,34.40
2022-12-29T03:29:31.827Z,33.40
2022-12-29T03:32:01.425Z,33.33
2022-12-29T03:34:32.562Z,33.57
2022-12-29T03:37:06.690Z,35.00
2022-12-29T03:39:35.320Z,33.70
2022-12-29T03:42:06.836Z,32.90
2022-12-29T03:44:37.416Z,33.70
2022-12-29T03:47:05.765Z,34.23
2022-12-29T03:49:35.071Z,34.30
2022-12-29T03:52:03.300Z,33.63
2022-12-29T03:54:31.315Z,35.37
2022-12-29T03:56:58.996Z,34.60
2022-12-29T03:59:26.666Z,33.90
2022-12-29T04:01:54.362Z,33.67
2022-12-29T04:04:22.036Z,34.80
2022-12-29T04:06:51.002Z,33.37
2022-12-29T04:09:18.639Z,34.27
2022-12-29T04:11:46.300Z,35.20
2022-12-29T04:14:13.881Z,35.43
2022-12-29T04:16:42.302Z,36.23
2022-12-29T04:19:10.364Z,35.77
2022-12-29T04:21:37.936Z,35.63
2022-12-29T04:24:08.650Z,35.30
2022-12-29T04:26:37.088Z,35.80
2022-12-29T04:29:04.669Z,36.43
2022-12-29T04:31:32.457Z,37.27
2022-12-29T04:34:01.023Z,35.50
2022-12-29T04:36:30.245Z,36.03
2022-12-29T04:38:58.017Z,36.40
2022-12-29T04:41:27.340Z,36.40
2022-12-29T04:43:54.903Z,35.67
2022-12-29T04:46:22.635Z,36.50
2022-12-29T04:48:50.460Z,35.77
2022-12-29T04:51:18.291Z,36.60
2022-12-29T04:53:46.122Z,36.10
2022-12-29T04:56:13.802Z,36.13
2022-12-29T04:58:42.797Z,35.53
2022-12-29T05:01:10.357Z,35.83
2022-12-29T05:03:37.994Z,36.50
2022-12-29T05:06:05.691Z,36.80
2022-12-29T05:08:33.295Z,35.70
2022-12-29T05:11:01.199Z,37.10
2022-12-29T05:13:28.793Z,37.17
2022-12-29T05:15:58.000Z,35.83
2022-12-29T05:18:25.761Z,37.33
2022-12-29T05:20:53.351Z,37.47
2022-12-29T05:23:20.918Z,37.00
2022-12-29T05:25:48.595Z,35.90
2022-12-29T05:28:16.241Z,37.67
2022-12-29T05:30:46.307Z,36.20
2022-12-29T05:33:15.274Z,34.80
2022-12-29T05:35:42.858Z,35.83
2022-12-29T05:38:10.519Z,32.57
2022-12-29T05:40:38.218Z,29.10
2022-12-29T05:43:06.123Z,28.87
2022-12-29T05:45:33.859Z,28.10
2022-12-29T05:48:01.490Z,28.07
2022-12-29T05:50:30.709Z,28.67
2022-12-29T05:52:58.320Z,29.97
2022-12-29T05:55:25.911Z,27.90
2022-12-29T05:57:53.503Z,26.30
2022-12-29T06:00:21.320Z,26.67
2022-12-29T06:02:49.221Z,25.70
2022-12-29T06:05:17.142Z,26.03
2022-12-29T06:07:46.692Z,26.03
2022-12-29T06:10:14.289Z,25.70
2022-12-29T06:12:41.919Z,25.10
2022-12-29T06:15:10.120Z,25.43
2022-12-29T06:17:37.677Z,25.93
2022-12-29T06:20:05.999Z,25.40
2022-12-29T06:22:33.648Z,26.00
2022-12-29T06:25:05.169Z,26.77
2022-12-29T06:27:33.421Z,27.00
2022-12-29T06:30:01.650Z,26.83
2022-12-29T06:32:29.415Z,27.37
2022-12-29T06:34:57.129Z,26.60
2022-12-29T06:37:24.730Z,28.53
2022-12-29T06:39:52.368Z,27.60
2022-12-29T06:42:21.768Z,28.63
2022-12-29T06:44:49.395Z,28.43
2022-12-29T06:47:17.302Z,28.53
2022-12-29T06:49:44.869Z,28.30
2022-12-29T06:52:13.462Z,28.40
2022-12-29T06:54:41.864Z,27.50
2022-12-29T06:57:09.454Z,27.67
2022-12-29T06:59:38.406Z,28.03
2022-12-29T07:02:06.444Z,28.20
2022-12-29T07:04:34.186Z,27.70
2022-12-29T07:07:01.755Z,28.40
2022-12-29T07:09:29.384Z,28.00
2022-12-29T07:11:56.982Z,28.10
2022-12-29T07:14:24.538Z,27.70
2022-12-29T07:16:53.573Z,28.20
2022-12-29T07:19:21.391Z,28.50
2022-12-29T07:21:49.203Z,28.80
2022-12-29T07:24:16.804Z,28.80
2022-12-29T07:26:44.389Z,28.07
2022-12-29T07:29:12.008Z,28.10
2022-12-29T07:31:40.039Z,28.27
2022-12-29T07:34:10.314Z,28.40
2022-12-29T07:36:37.931Z,27.40
2022-12-29T07:39:05.661Z,28.00
2022-12-29T07:41:33.739Z,27.60
2022-12-29T07:44:01.326Z,27.00
2022-12-29T07:46:55.574Z,27.67
2022-12-29T07:49:18.179Z,27.33
2022-12-29T07:51:45.816Z,27.07
2022-12-29T07:54:14.005Z,28.07
2022-12-29T07:56:41.617Z,28.33
2022-12-29T07:59:09.237Z,28.40
2022-12-29T08:01:37.244Z,28.73
2022-12-29T08:04:05.436Z,28.00
2022-12-29T08:06:34.423Z,28.47
2022-12-29T08:09:10.402Z,28.73
2022-12-29T08:11:41.259Z,28.00
2022-12-29T08:14:09.024Z,28.30
2022-12-29T08:16:36.685Z,27.63
2022-12-29T08:19:06.098Z,28.17
2022-12-29T08:21:35.036Z,28.37
2022-12-29T08:24:02.632Z,28.20
2022-12-29T08:26:30.273Z,28.63
2022-12-29T08:28:57.862Z,28.10
2022-12-29T08:31:26.004Z,28.47
2022-12-29T08:33:54.075Z,28.40
2022-12-29T08:36:22.022Z,28.30
2022-12-29T08:38:51.000Z,27.57
2022-12-29T08:41:18.593Z,28.50
2022-12-29T08:43:48.093Z,27.83
2022-12-29T08:46:15.810Z,28.17
2022-12-29T08:48:43.463Z,28.13
2022-12-29T08:51:11.147Z,27.83
2022-12-29T08:53:39.064Z,27.40
2022-12-29T08:56:10.529Z,27.70
2022-12-29T08:58:38.195Z,27.83
2022-12-29T09:01:06.146Z,27.43
2022-12-29T09:06:21.804Z,27.93
2022-12-29T09:08:49.521Z,29.40
2022-12-29T09:11:21.073Z,29.60
2022-12-29T09:13:49.188Z,30.07
2022-12-29T09:16:17.955Z,28.30
2022-12-29T09:18:46.644Z,30.03
2022-12-29T09:21:14.820Z,28.17
2022-12-29T09:23:42.623Z,28.00
2022-12-29T09:26:10.405Z,29.40
2022-12-29T09:28:39.413Z,29.40
2022-12-29T09:31:07.341Z,28.60
2022-12-29T09:33:35.397Z,29.50
2022-12-29T09:36:03.449Z,28.87
2022-12-29T09:38:32.002Z,29.10
2022-12-29T09:41:07.591Z,28.57
2022-12-29T09:43:54.388Z,30.60
2022-12-29T09:46:27.716Z,30.27
2022-12-29T09:49:04.165Z,28.57
2022-12-29T09:51:34.006Z,29.20
2022-12-29T09:54:15.932Z,28.90
2022-12-29T09:56:44.803Z,29.47
2022-12-29T09:59:19.340Z,28.13
2022-12-29T10:01:54.775Z,28.57
2022-12-29T10:04:22.556Z,28.70
2022-12-29T10:07:28.670Z,28.70
2022-12-29T10:10:02.249Z,30.10
2022-12-29T10:12:40.419Z,30.00
2022-12-29T10:15:20.379Z,28.03
2022-12-29T10:17:55.758Z,28.90
2022-12-29T10:20:33.819Z,28.20
2022-12-29T10:23:21.598Z,28.27
2022-12-29T10:25:49.707Z,28.20
2022-12-29T10:28:23.237Z,27.93
2022-12-29T10:30:54.365Z,27.63
2022-12-29T10:33:25.262Z,28.50
2022-12-29T10:35:53.516Z,28.23
2022-12-29T10:38:28.200Z,28.90
2022-12-29T10:41:00.468Z,28.93
2022-12-29T10:43:30.419Z,29.33
2022-12-29T10:46:02.921Z,27.83
2022-12-29T10:48:33.191Z,26.23
2022-12-29T10:51:04.129Z,27.93
2022-12-29T10:53:38.011Z,28.83
2022-12-29T10:56:11.267Z,27.67
2022-12-29T10:58:39.370Z,27.67
2022-12-29T11:01:13.836Z,27.73
2022-12-29T11:04:04.519Z,27.03
2022-12-29T11:06:33.130Z,27.30
2022-12-29T11:09:04.359Z,27.80
2022-12-29T11:11:36.413Z,28.20
2022-12-29T11:14:13.770Z,27.03
2022-12-29T11:16:45.190Z,28.33
2022-12-29T11:19:23.832Z,27.20
2022-12-29T11:21:52.280Z,27.10
2022-12-29T11:24:23.055Z,27.80
2022-12-29T11:26:53.930Z,27.10
2022-12-29T11:29:26.875Z,26.90
2022-12-29T11:31:59.036Z,27.50
2022-12-29T11:34:31.253Z,26.20
2022-12-29T11:37:04.145Z,26.73
2022-12-29T11:39:41.018Z,28.07
2022-12-29T11:42:16.414Z,26.97
2022-12-29T11:44:46.786Z,27.77
2022-12-29T11:47:25.207Z,27.20
2022-12-29T11:49:56.000Z,27.40
2022-12-29T11:52:26.428Z,26.23
2022-12-29T11:54:55.184Z,27.30
2022-12-29T11:57:25.050Z,27.57
2022-12-29T11:59:56.077Z,28.07
2022-12-29T12:02:40.474Z,27.57
2022-12-29T12:05:16.625Z,27.20
2022-12-29T12:07:46.628Z,26.90
2022-12-29T12:10:21.954Z,27.67
2022-12-29T12:12:55.218Z,29.07
2022-12-29T12:15:28.063Z,27.00
2022-12-29T12:18:02.257Z,27.00
2022-12-29T12:20:40.136Z,27.30
2022-12-29T12:23:19.705Z,26.70
2022-12-29T12:25:56.653Z,26.60
2022-12-29T12:28:36.961Z,26.63
2022-12-29T12:31:15.580Z,27.33
2022-12-29T12:33:49.976Z,27.23
2022-12-29T12:36:45.330Z,28.43
2022-12-29T12:39:21.047Z,27.40
2022-12-29T12:41:56.308Z,27.30
2022-12-29T12:44:34.872Z,27.40
2022-12-29T12:47:43.682Z,27.33
2022-12-29T12:50:34.143Z,28.13
2022-12-29T12:53:23.603Z,27.10
2022-12-29T12:56:05.748Z,26.93
2022-12-29T12:58:43.635Z,26.13
2022-12-29T13:01:24.612Z,26.07
2022-12-29T13:04:13.961Z,27.20
2022-12-29T13:06:52.033Z,27.60
2022-12-29T13:09:40.060Z,27.30
2022-12-29T13:12:20.598Z,27.50
2022-12-29T13:14:59.575Z,27.77
2022-12-29T13:17:32.402Z,28.13
2022-12-29T13:20:11.034Z,27.57
2022-12-29T13:22:49.095Z,27.60
2022-12-29T13:25:28.423Z,27.40
2022-12-29T13:28:02.533Z,28.37
2022-12-29T13:30:35.866Z,28.63
2022-12-29T13:33:21.341Z,28.23
2022-12-29T13:35:59.179Z,29.00
2022-12-29T13:38:34.587Z,28.13
2022-12-29T13:41:06.604Z,27.90
2022-12-29T13:43:37.915Z,27.60
2022-12-29T13:46:10.139Z,27.77
2022-12-29T13:48:47.482Z,29.27
2022-12-29T13:51:16.179Z,28.80
2022-12-29T13:54:02.225Z,28.47
2022-12-29T13:56:35.651Z,29.23
2022-12-29T13:59:14.035Z,30.33
2022-12-29T14:01:49.529Z,30.20
2022-12-29T14:04:24.415Z,30.10
2022-12-29T14:07:03.167Z,30.30
2022-12-29T14:09:42.880Z,31.03
2022-12-29T14:12:33.534Z,29.07
2022-12-29T14:15:26.107Z,33.10
2022-12-29T14:18:13.586Z,31.50
2022-12-29T14:20:51.829Z,30.40
2022-12-29T14:23:29.904Z,29.90
2022-12-29T14:26:15.996Z,29.33
2022-12-29T14:28:45.429Z,28.90
2022-12-29T14:31:35.841Z,28.77
2022-12-29T14:34:39.035Z,30.67
2022-12-29T14:37:20.319Z,30.30
2022-12-29T14:39:48.029Z,29.53
2022-12-29T14:42:23.586Z,30.00
2022-12-29T14:44:53.852Z,29.00
2022-12-29T14:47:24.672Z,30.87
2022-12-29T14:49:53.527Z,29.77
2022-12-29T14:52:23.377Z,30.43
2022-12-29T14:54:55.979Z,28.23
2022-12-29T14:57:35.374Z,30.10
2022-12-29T15:00:09.443Z,29.57
2022-12-29T15:02:42.766Z,30.80
2022-12-29T15:05:30.117Z,30.10
2022-12-29T15:07:59.770Z,31.30
2022-12-29T15:10:34.270Z,29.90
2022-12-29T15:13:06.400Z,30.00
2022-12-29T15:15:39.730Z,30.00
2022-12-29T15:18:24.557Z,29.60
2022-12-29T15:20:55.288Z,30.47
2022-12-29T15:23:23.609Z,31.83
2022-12-29T15:25:55.372Z,29.60
2022-12-29T15:28:25.313Z,29.80
2022-12-29T15:30:55.187Z,31.00
2022-12-29T15:33:24.739Z,30.70
2022-12-29T15:35:53.958Z,31.30
2022-12-29T15:38:32.217Z,30.00
2022-12-29T15:41:07.284Z,30.83
2022-12-29T15:43:50.915Z,29.20
2022-12-29T15:46:19.430Z,29.33
2022-12-29T15:48:47.447Z,31.10
2022-12-29T15:51:22.144Z,29.53
2022-12-29T15:53:52.222Z,29.53
2022-12-29T15:56:20.411Z,29.47
2022-12-29T15:58:51.816Z,29.77
2022-12-29T16:01:22.002Z,28.70
2022-12-29T16:03:50.623Z,29.40
2022-12-29T16:06:33.956Z,30.20
2022-12-29T16:09:04.425Z,29.07
2022-12-29T16:11:36.180Z,29.00
2022-12-29T16:14:09.890Z,28.60
2022-12-29T16:16:40.835Z,29.77
2022-12-29T16:19:16.109Z,28.27
2022-12-29T16:21:44.985Z,29.00
2022-12-29T16:24:17.316Z,28.80
2022-12-29T16:26:50.450Z,29.43
2022-12-29T16:29:23.324Z,28.70
2022-12-29T16:32:00.955Z,29.30
2022-12-29T16:34:32.268Z,29.80
2022-12-29T16:37:01.318Z,27.83
2022-12-29T16:39:35.560Z,28.10
2022-12-29T16:42:23.462Z,28.70
2022-12-29T16:45:03.008Z,27.50
2022-12-29T16:47:31.252Z,31.07
2022-12-29T16:50:13.703Z,28.70
2022-12-29T16:52:41.295Z,28.33
2022-12-29T16:55:18.553Z,27.80
2022-12-29T16:57:48.832Z,29.60
2022-12-29T17:00:23.768Z,28.00
2022-12-29T17:02:54.799Z,28.10
2022-12-29T17:05:22.700Z,27.73
2022-12-29T17:07:52.232Z,27.30
2022-12-29T17:10:19.790Z,29.33
2022-12-29T17:12:49.532Z,28.73
2022-12-29T17:15:26.843Z,28.50
2022-12-29T17:17:56.955Z,28.10
2022-12-29T17:20:26.611Z,28.63
2022-12-29T17:22:55.257Z,28.63
2022-12-29T17:25:28.268Z,28.33
2022-12-29T17:28:00.729Z,28.20
2022-12-29T17:30:34.075Z,28.40
2022-12-29T17:33:04.336Z,28.13
2022-12-29T17:35:31.943Z,27.93
2022-12-29T17:37:59.553Z,28.73
2022-12-29T17:40:30.542Z,27.70
2022-12-29T17:43:00.318Z,28.90
2022-12-29T17:45:31.382Z,28.03
2022-12-29T17:48:01.747Z,27.80
2022-12-29T17:50:32.153Z,28.70
2022-12-29T17:53:04.193Z,29.67
2022-12-29T17:55:37.544Z,27.80
2022-12-29T17:58:17.823Z,29.00
2022-12-29T18:00:47.488Z,28.70
2022-12-29T18:03:17.490Z,28.00
2022-12-29T18:05:45.959Z,28.10
2022-12-29T18:08:13.596Z,28.97
2022-12-29T18:10:41.334Z,27.63
2022-12-29T18:13:20.389Z,28.00
2022-12-29T18:15:50.399Z,27.63
2022-12-29T18:18:19.690Z,27.70
2022-12-29T18:20:48.773Z,28.80
2022-12-29T18:23:20.847Z,27.60
2022-12-29T18:25:52.999Z,27.43
2022-12-29T18:28:20.728Z,28.00
2022-12-29T18:30:49.764Z,28.00
2022-12-29T18:33:22.592Z,27.90
2022-12-29T18:35:55.744Z,29.20
2022-12-29T18:38:23.511Z,28.93
2022-12-29T18:40:51.583Z,27.93
2022-12-29T18:43:19.938Z,28.23
2022-12-29T18:45:49.461Z,27.17
2022-12-29T18:48:18.480Z,27.50
2022-12-29T18:50:47.210Z,28.13
2022-12-29T18:53:17.225Z,28.40
2022-12-29T18:55:45.048Z,29.20
2022-12-29T18:58:12.671Z,29.50
2022-12-29T19:00:40.757Z,28.00
2022-12-29T19:03:13.674Z,28.20
2022-12-29T19:05:43.473Z,29.10
2022-12-29T19:08:12.194Z,28.40
2022-12-29T19:10:41.975Z,28.93
2022-12-29T19:13:17.260Z,27.57
2022-12-29T19:15:46.407Z,29.90
2022-12-29T19:21:07.463Z,29.10
2022-12-29T19:23:35.059Z,29.23
2022-12-29T19:26:02.683Z,28.40
2022-12-29T19:28:30.494Z,29.90
2022-12-29T19:31:01.116Z,28.60
2022-12-29T19:33:30.335Z,28.83
2022-12-29T19:36:00.946Z,27.90
2022-12-29T19:38:28.606Z,29.30
2022-12-29T19:40:56.485Z,29.20
2022-12-29T19:43:24.046Z,29.93
2022-12-29T19:45:52.459Z,29.00
2022-12-29T19:48:21.508Z,28.67
2022-12-29T19:50:50.904Z,28.90
2022-12-29T19:53:18.504Z,29.10
2022-12-29T19:55:46.863Z,30.13
2022-12-29T19:58:15.513Z,29.90
2022-12-29T20:00:44.594Z,29.00
2022-12-29T20:03:12.519Z,30.07
2022-12-29T20:05:41.017Z,26.83
2022-12-29T20:08:09.948Z,27.60
2022-12-29T20:10:37.769Z,27.60
2022-12-29T20:13:06.030Z,29.00
2022-12-29T20:15:33.745Z,29.70
2022-12-29T20:18:13.330Z,30.23
2022-12-29T20:20:42.059Z,29.07
2022-12-29T20:23:11.326Z,29.00
2022-12-29T20:25:47.526Z,30.23
2022-12-29T20:28:16.915Z,28.33
2022-12-29T20:30:44.825Z,28.57
2022-12-29T20:33:13.057Z,28.40
2022-12-29T20:35:40.684Z,27.63
2022-12-29T20:38:08.301Z,27.70
2022-12-29T20:40:45.973Z,28.30
2022-12-29T20:43:15.416Z,28.73
2022-12-29T20:45:43.281Z,27.33
2022-12-29T20:48:10.977Z,27.30
2022-12-29T20:50:38.718Z,27.73
2022-12-29T20:53:07.999Z,26.63
2022-12-29T20:55:35.759Z,27.40
2022-12-29T21:00:52.794Z,28.53
2022-12-29T21:03:20.840Z,29.00
2022-12-29T21:05:48.830Z,28.77
2022-12-29T21:08:16.516Z,28.03
2022-12-29T21:10:47.405Z,27.87
2022-12-29T21:13:17.557Z,27.53
2022-12-29T21:15:45.810Z,27.80
2022-12-29T21:18:16.477Z,28.23
2022-12-29T21:20:44.034Z,28.20
2022-12-29T21:23:11.630Z,27.17
2022-12-29T21:25:44.563Z,28.73
2022-12-29T21:28:13.053Z,27.47
2022-12-29T21:30:42.799Z,28.33
2022-12-29T21:33:10.548Z,28.17
2022-12-29T21:35:38.757Z,27.40
2022-12-29T21:38:06.744Z,28.40
2022-12-29T21:40:35.625Z,27.20
2022-12-29T21:43:03.183Z,27.73
2022-12-29T21:45:32.380Z,27.10
2022-12-29T21:48:20.403Z,28.80
2022-12-29T21:51:08.765Z,27.00
2022-12-29T21:53:43.804Z,28.10
2022-12-29T21:56:12.985Z,28.67
2022-12-29T21:59:11.392Z,28.00
2022-12-29T22:01:57.417Z,27.70
2022-12-29T22:04:44.551Z,28.10
2022-12-29T22:07:30.784Z,28.00
2022-12-29T22:10:15.597Z,28.10
2022-12-29T22:13:01.628Z,28.60
2022-12-29T22:15:31.442Z,28.50
2022-12-29T22:17:59.853Z,30.93
2022-12-29T22:20:30.937Z,28.87
2022-12-29T22:22:58.580Z,29.20
2022-12-29T22:25:26.783Z,28.87
2022-12-29T22:27:59.192Z,28.53
2022-12-29T22:30:27.932Z,28.07
2022-12-29T22:32:56.548Z,27.40
2022-12-29T22:35:24.789Z,27.37
2022-12-29T22:37:54.241Z,27.20
2022-12-29T22:40:21.835Z,27.23
2022-12-29T22:42:49.462Z,28.10
2022-12-29T22:45:17.088Z,29.20
2022-12-29T22:47:44.687Z,28.23
2022-12-29T22:50:12.263Z,27.60
2022-12-29T22:52:39.864Z,28.17
2022-12-29T22:55:09.597Z,29.10
2022-12-29T22:57:37.306Z,27.73
2022-12-29T23:00:08.037Z,27.27
2022-12-29T23:02:35.946Z,29.47
2022-12-29T23:05:05.309Z,28.90
2022-12-29T23:07:34.048Z,28.67
2022-12-29T23:10:01.814Z,27.93
2022-12-29T23:12:31.904Z,28.20
2022-12-29T23:14:59.653Z,28.50
2022-12-29T23:17:27.465Z,28.00
2022-12-29T23:19:55.074Z,28.67
2022-12-29T23:22:23.136Z,28.40
2022-12-29T23:24:50.786Z,28.80
2022-12-29T23:27:18.611Z,28.90
2022-12-29T23:29:47.588Z,30.77
2022-12-29T23:32:15.632Z,29.50
2022-12-29T23:34:43.196Z,30.03
2022-12-29T23:37:10.767Z,28.63
2022-12-29T23:39:38.368Z,30.30
2022-12-29T23:42:06.077Z,29.27
2022-12-29T23:44:33.964Z,29.43
2022-12-29T23:47:02.899Z,29.10
2022-12-29T23:49:30.499Z,30.43
2022-12-29T23:51:58.042Z,28.80
2022-12-29T23:54:26.307Z,29.10
2022-12-29T23:56:53.842Z,28.60
2022-12-29T23:59:21.389Z,29.30
